M I D A S
Marine Information and Data Acquisition System
Tripno 1261 of the Zeeleeuw from 2007-04-11 06:25:57 to 2007-04-11 16:50:56
Back to CruiseResearch ActivitiesStationsMapUnderway DataData graphs

EquipmentUnitsComment
TimeDGPSUTC
LatitudeDGPSDM.mWGS84
LongitudeDGPSDM.mWGS84
HeadingGyrodeg 
SOGDGPSknotsSpeed over ground
COGDGPSdegCourse over ground
DepthEcho soundermeters200 kHz
Missing or incorrect values are displayed as -999
Navigation data collected by the RV Zeeleeuw from 2007-04-11 06:25:11 to 2007-04-11 17:00:22
Time Latitude Longitude Heading SOG COG Depth
2007-04-11 06:26:16 51°13.601 2°56.1 125.7 -999 72 -999
2007-04-11 06:27:16 51°13.601 2°56.099 119.3 0.1 192 -999
2007-04-11 06:28:17 51°13.607 2°56.074 115 2.7 294 -999
2007-04-11 06:29:16 51°13.631 2°55.984 119.8 4.5 295 -999
2007-04-11 06:30:16 51°13.665 2°55.878 114.7 3.8 295 -999
2007-04-11 06:31:15 51°13.681 2°55.802 100.7 2.6 283 12.7
2007-04-11 06:32:13 51°13.683 2°55.76 86.7 0.8 271 13.6
2007-04-11 06:33:13 51°13.687 2°55.76 58.4 0.8 41 14.4
2007-04-11 06:34:12 51°13.698 2°55.771 22.6 0.7 202 15.3
2007-04-11 06:35:16 51°13.708 2°55.762 346.7 2.4 337 15.8
2007-04-11 06:36:14 51°13.765 2°55.697 329.3 5.8 326 13.1
2007-04-11 06:37:13 51°13.866 2°55.611 339.5 8 336 13
2007-04-11 06:38:12 51°13.996 2°55.518 341.1 9 336 13.1
2007-04-11 06:39:13 51°14.136 2°55.415 339.1 9.2 334 13.1
2007-04-11 06:40:16 51°14.278 2°55.248 319.3 11 314 13.3
2007-04-11 06:41:14 51°14.392 2°55.002 307 12.9 304 12.5
2007-04-11 06:42:12 51°14.52 2°54.732 305.1 13.1 304 12
2007-04-11 06:43:12 51°14.637 2°54.443 303.4 12.9 302 12.1
2007-04-11 06:44:12 51°14.708 2°54.128 283 12.5 278 11.8
2007-04-11 06:45:12 51°14.724 2°53.797 275 12.7 274 12.6
2007-04-11 06:46:12 51°14.74 2°53.457 276.5 12.9 274 -999
2007-04-11 06:47:13 51°14.761 2°53.108 277.8 13 276 11.2
2007-04-11 06:48:13 51°14.783 2°52.764 277.7 13 277 11.3
2007-04-11 06:49:13 51°14.818 2°52.426 280.9 12.9 280 11.7
2007-04-11 06:50:13 51°14.85 2°52.09 278.7 12.8 277 12.2
2007-04-11 06:51:13 51°14.867 2°51.753 273.3 12.8 272 12.6
2007-04-11 06:52:12 51°14.877 2°51.42 274.8 12.8 272 13.1
2007-04-11 06:53:13 51°14.888 2°51.079 274.8 12.6 273 13.4
2007-04-11 06:54:13 51°14.898 2°50.744 274.7 12.7 272 13.7
2007-04-11 06:55:13 51°14.912 2°50.408 275.9 12.7 274 14
2007-04-11 06:56:13 51°14.924 2°50.073 274.7 12.6 274 14.1
2007-04-11 06:57:12 51°14.936 2°49.744 274.8 12.7 273 14.3
2007-04-11 06:58:13 51°14.95 2°49.403 275.4 12.7 274 14.4
2007-04-11 06:59:13 51°14.963 2°49.068 275.1 12.7 274 14.5
2007-04-11 07:00:13 51°14.975 2°48.732 275.2 12.7 273 14.3
2007-04-11 07:01:12 51°14.988 2°48.403 275.3 12.6 274 14.6
2007-04-11 07:02:13 51°15.003 2°48.065 275.1 12.6 274 14.9
2007-04-11 07:03:13 51°15.018 2°47.733 275 12.6 274 14.3
2007-04-11 07:04:13 51°15.03 2°47.398 275 12.8 272 11.7
2007-04-11 07:05:13 51°15.04 2°47.056 276.1 13 273 10.8
2007-04-11 07:06:12 51°15.051 2°46.718 275.7 13 272 11.5
2007-04-11 07:07:13 51°15.063 2°46.367 275.5 13 274 12.8
2007-04-11 07:08:13 51°15.075 2°46.024 275.1 12.9 274 14.4
2007-04-11 07:09:13 51°15.088 2°45.683 275.1 12.8 274 15.9
2007-04-11 07:10:13 51°15.102 2°45.345 275.5 12.8 274 17.4
2007-04-11 07:11:13 51°15.116 2°45.008 275.7 12.7 273 18.3
2007-04-11 07:12:12 51°15.13 2°44.675 275.5 12.8 274 19.5
2007-04-11 07:13:13 51°15.146 2°44.334 275.3 12.7 274 19.9
2007-04-11 07:14:13 51°15.161 2°43.998 275.2 12.7 274 18.5
2007-04-11 07:15:13 51°15.177 2°43.664 275.4 12.7 274 16
2007-04-11 07:16:13 51°15.191 2°43.33 275.7 12.7 275 14.9
2007-04-11 07:17:13 51°15.206 2°42.996 275 12.7 274 15.3
2007-04-11 07:18:13 51°15.221 2°42.66 275.4 12.8 275 15.2
2007-04-11 07:19:13 51°15.234 2°42.323 275.2 12.7 274 14.2
2007-04-11 07:20:13 51°15.245 2°41.984 275 12.8 273 13.1
2007-04-11 07:21:13 51°15.256 2°41.643 275.3 13 273 12.8
2007-04-11 07:22:13 51°15.267 2°41.301 274.8 12.9 273 12.7
2007-04-11 07:23:13 51°15.279 2°40.96 275.6 12.8 272 13.1
2007-04-11 07:24:13 51°15.293 2°40.619 275.4 13 274 13.7
2007-04-11 07:25:13 51°15.308 2°40.275 275.3 13 275 15.3
2007-04-11 07:26:13 51°15.323 2°39.933 275.2 12.9 274 18.1
2007-04-11 07:27:13 51°15.339 2°39.596 275.1 12.7 274 19.1
2007-04-11 07:28:13 51°15.355 2°39.261 275.3 12.7 275 20.1
2007-04-11 07:29:13 51°15.369 2°38.924 275.1 12.8 273 19.4
2007-04-11 07:30:13 51°15.378 2°38.583 275.4 12.9 272 17.1
2007-04-11 07:31:13 51°15.389 2°38.242 275.6 12.8 273 13
2007-04-11 07:32:13 51°15.401 2°37.903 275 12.8 273 11.6
2007-04-11 07:33:13 51°15.412 2°37.563 275.6 12.9 273 12.4
2007-04-11 07:34:13 51°15.425 2°37.223 275.5 12.8 273 14.5
2007-04-11 07:35:13 51°15.447 2°36.883 277.9 12.8 277 11
2007-04-11 07:36:13 51°15.469 2°36.543 277.6 12.9 276 16.2
2007-04-11 07:37:13 51°15.493 2°36.202 277.8 12.9 276 20.5
2007-04-11 07:38:13 51°15.518 2°35.861 277.7 13 277 26.1
2007-04-11 07:39:13 51°15.541 2°35.517 277.2 13.1 276 27.7
2007-04-11 07:40:13 51°15.568 2°35.17 277.1 13.2 277 27.3
2007-04-11 07:41:13 51°15.595 2°34.825 277 13.1 277 27.8
2007-04-11 07:42:13 51°15.625 2°34.479 277.4 13.1 278 27.3
2007-04-11 07:43:13 51°15.655 2°34.134 276.6 13.1 278 25.1
2007-04-11 07:44:13 51°15.684 2°33.791 277.1 12.9 279 15.9
2007-04-11 07:45:13 51°15.714 2°33.45 277 12.9 277 11.7
2007-04-11 07:46:13 51°15.733 2°33.102 276.3 13.3 275 9.9
2007-04-11 07:47:13 51°15.754 2°32.75 277.9 13.3 276 9.6
2007-04-11 07:48:13 51°15.776 2°32.398 276.9 13.1 274 9.3
2007-04-11 07:49:13 51°15.776 2°32.044 265.6 13.1 260 20.4
2007-04-11 07:50:13 51°15.679 2°31.757 227.9 12.6 221 23.2
2007-04-11 07:51:12 51°15.51 2°31.564 218.5 12.6 215 19.8
2007-04-11 07:52:13 51°15.337 2°31.362 219.6 12.7 217 14.9
2007-04-11 07:53:13 51°15.169 2°31.156 220.9 12.8 217 12.5
2007-04-11 07:54:13 51°15.004 2°30.941 221.2 12.7 220 12.8
2007-04-11 07:55:13 51°14.838 2°30.722 221.3 13 219 12.2
2007-04-11 07:56:13 51°14.674 2°30.506 221.9 12.4 219 11.4
2007-04-11 07:57:13 51°14.539 2°30.344 208 8.2 204 12.4
2007-04-11 07:58:13 51°14.458 2°30.266 225.7 2.7 224 11.7
2007-04-11 07:59:14 51°14.459 2°30.271 259.2 0.6 64 4.5
2007-04-11 08:00:16 51°14.465 2°30.283 256.9 0.5 54 -999
2007-04-11 08:01:16 51°14.47 2°30.293 251.1 0.4 41 4.7
2007-04-11 08:02:14 51°14.471 2°30.291 243.4 0.6 254 4.6
2007-04-11 08:03:13 51°14.466 2°30.267 245.6 1.3 249 11.7
2007-04-11 08:04:13 51°14.452 2°30.23 223.4 1.7 224 12
2007-04-11 08:05:13 51°14.434 2°30.192 239.1 2 245 11.7
2007-04-11 08:06:13 51°14.42 2°30.159 224.6 1.1 228 10.7
2007-04-11 08:07:13 51°14.413 2°30.143 226.8 0.9 244 10.3
2007-04-11 08:08:13 51°14.428 2°30.059 310.6 5.4 320 11.4
2007-04-11 08:09:13 51°14.559 2°29.986 352.7 9.6 356 16.4
2007-04-11 08:10:13 51°14.634 2°30.1 86.2 5.7 86 15.7
2007-04-11 08:11:13 51°14.579 2°30.201 165.3 5.4 158 11.9
2007-04-11 08:12:13 51°14.502 2°30.204 202.9 4.2 196 11.7
2007-04-11 08:13:13 51°14.442 2°30.2 182.3 3.2 180 11.9
2007-04-11 08:14:13 51°14.41 2°30.191 200.5 0.2 148 12.1
2007-04-11 08:15:13 51°14.393 2°30.131 265.2 5.3 273 9.9
2007-04-11 08:16:13 51°14.485 2°30.01 329.4 8.7 330 14.1
2007-04-11 08:17:13 51°14.617 2°30.069 59.5 9.2 60 16
2007-04-11 08:18:13 51°14.564 2°30.221 164.2 6.8 158 11.8
2007-04-11 08:19:13 51°14.465 2°30.276 172.3 5 172 11.5
2007-04-11 08:20:13 51°14.416 2°30.25 229.8 0.6 218 11.7
2007-04-11 08:21:16 51°14.43 2°30.284 245.6 0.6 34 -999
2007-04-11 08:22:16 51°14.43 2°30.24 267.3 3 269 4.6
2007-04-11 08:23:14 51°14.44 2°30.155 270.4 2.9 271 10.5
2007-04-11 08:24:13 51°14.438 2°30.095 254.5 1.9 263 10.8
2007-04-11 08:25:13 51°14.427 2°30.041 240.2 3.9 241 11.8
2007-04-11 08:26:13 51°14.347 2°29.943 190 5.7 177 13.6
2007-04-11 08:27:13 51°14.314 2°30.063 79.7 6.1 65 10.1
2007-04-11 08:28:13 51°14.386 2°30.136 27.3 4.3 24 9.7
2007-04-11 08:29:13 51°14.431 2°30.203 63.8 3.1 53 11.8
2007-04-11 08:30:13 51°14.456 2°30.259 65.3 2.6 54 11.5
2007-04-11 08:31:13 51°14.472 2°30.375 94.3 5.3 80 12
2007-04-11 08:32:13 51°14.538 2°30.443 2.5 5 354 11.3
2007-04-11 08:33:13 51°14.582 2°30.352 271.3 4.5 269 12.1
2007-04-11 08:34:13 51°14.532 2°30.28 202.5 4.5 200 11.3
2007-04-11 08:35:13 51°14.469 2°30.221 213 4 208 11.6
2007-04-11 08:36:13 51°14.415 2°30.172 228.6 3.3 231 11
2007-04-11 08:37:13 51°14.395 2°30.109 247.8 2.7 253 10.2
2007-04-11 08:38:13 51°14.416 2°30.027 316.4 4 323 11.6
2007-04-11 08:39:13 51°14.524 2°30.012 3.5 10.6 1 14.4
2007-04-11 08:40:13 51°14.618 2°30.144 90.6 6 91 12.8
2007-04-11 08:41:13 51°14.562 2°30.225 172.4 4.6 168 11.6
2007-04-11 08:42:13 51°14.489 2°30.231 192.2 4 193 11.4
2007-04-11 08:43:13 51°14.436 2°30.194 193.1 3 191 11.5
2007-04-11 08:44:13 51°14.394 2°30.185 189.7 2.2 190 11.8
2007-04-11 08:45:13 51°14.354 2°30.177 188.7 2.5 187 11.6
2007-04-11 08:46:13 51°14.316 2°30.156 213.5 2.2 213 10.9
2007-04-11 08:47:13 51°14.295 2°30.122 224.9 1.6 230 10.2
2007-04-11 08:48:13 51°14.281 2°30.093 224 1.3 239 10.5
2007-04-11 08:49:13 51°14.271 2°30.071 217.3 1 235 10.1
2007-04-11 08:50:13 51°14.262 2°30.055 208.5 0.8 231 9.7
2007-04-11 08:51:13 51°14.255 2°30.044 198.4 0.6 232 9.5
2007-04-11 08:52:13 51°14.25 2°30.038 188.7 0.3 219 9.6
2007-04-11 08:53:13 51°14.247 2°30.032 179.3 0.3 244 9.5
2007-04-11 08:54:13 51°14.245 2°30.029 169.8 0.2 239 9.6
2007-04-11 08:55:13 51°14.245 2°30.027 161.7 0.2 246 9.5
2007-04-11 08:56:13 51°14.245 2°30.025 153.1 0.1 279 9.6
2007-04-11 08:57:13 51°14.245 2°30.024 144.8 0.2 293 9.5
2007-04-11 08:58:13 51°14.247 2°30.021 137.4 0.2 297 9.6
2007-04-11 08:59:13 51°14.249 2°30.017 131.3 0.2 280 9.6
2007-04-11 09:00:13 51°14.251 2°30.012 127.1 0.2 312 9.6
2007-04-11 09:01:13 51°14.252 2°30.029 97.5 1.5 81 9.5
2007-04-11 09:02:13 51°14.273 2°30.073 45.5 2.7 34 10.1
2007-04-11 09:03:13 51°14.317 2°30.108 32.1 2.7 22 9.9
2007-04-11 09:04:13 51°14.355 2°30.126 22 2.2 11 9.5
2007-04-11 09:05:13 51°14.387 2°30.131 14.2 1.8 11 9.6
2007-04-11 09:06:13 51°14.414 2°30.128 8.2 1.5 355 9.3
2007-04-11 09:07:13 51°14.436 2°30.121 4.1 1.3 349 9.5
2007-04-11 09:08:13 51°14.454 2°30.114 2 1.1 347 9.8
2007-04-11 09:09:13 51°14.471 2°30.107 1.4 0.9 349 10.1
2007-04-11 09:10:13 51°14.485 2°30.1 2.5 0.8 349 10.2
2007-04-11 09:11:13 51°14.498 2°30.093 6.5 0.8 336 10.6
2007-04-11 09:12:13 51°14.51 2°30.089 14.8 0.7 347 10.9
2007-04-11 09:13:13 51°14.521 2°30.087 25.1 0.7 353 11
2007-04-11 09:14:13 51°14.53 2°30.087 34.1 0.5 358 11.1
2007-04-11 09:15:13 51°14.538 2°30.086 39.9 0.5 356 11.1
2007-04-11 09:16:13 51°14.546 2°30.087 45.2 0.5 351 11.1
2007-04-11 09:17:13 51°14.552 2°30.088 51.5 0.4 359 11.3
2007-04-11 09:18:13 51°14.557 2°30.089 56 0.3 18 11.4
2007-04-11 09:19:13 51°14.562 2°30.087 58.2 0.2 1 11.6
2007-04-11 09:20:13 51°14.567 2°30.085 60.2 0.3 348 11.8
2007-04-11 09:21:13 51°14.571 2°30.083 61.7 0.2 347 12
2007-04-11 09:22:13 51°14.574 2°30.081 63 0.1 324 12.3
2007-04-11 09:23:13 51°14.577 2°30.077 64.9 0.2 308 12.5
2007-04-11 09:24:13 51°14.579 2°30.073 68.8 0.3 322 12.8
2007-04-11 09:25:13 51°14.582 2°30.069 73.4 0.2 295 13
2007-04-11 09:26:13 51°14.583 2°30.066 79.5 0.1 272 13.3
2007-04-11 09:27:13 51°14.585 2°30.061 86.4 0.3 319 13.6
2007-04-11 09:28:13 51°14.586 2°30.056 95.1 0.2 267 13.9
2007-04-11 09:29:13 51°14.587 2°30.051 105.5 0.2 276 14.1
2007-04-11 09:30:13 51°14.586 2°30.045 116.4 0.2 268 14.3
2007-04-11 09:31:13 51°14.585 2°30.039 128.2 0.2 251 14.6
2007-04-11 09:32:13 51°14.584 2°30.032 140 0.3 262 14.9
2007-04-11 09:33:13 51°14.583 2°30.024 151.4 0.2 259 15.2
2007-04-11 09:34:13 51°14.581 2°30.016 160.7 0.3 253 15.5
2007-04-11 09:35:13 51°14.58 2°30.008 168.8 0.2 248 15.7
2007-04-11 09:36:13 51°14.579 2°30 174.5 0.3 254 16
2007-04-11 09:37:13 51°14.574 2°29.993 175.1 0.7 198 16.1
2007-04-11 09:38:13 51°14.555 2°30.003 145.1 1.5 156 14.8
2007-04-11 09:39:13 51°14.531 2°30.029 139 1.7 142 13.4
2007-04-11 09:40:13 51°14.511 2°30.052 133.2 1.3 146 12.4
2007-04-11 09:41:13 51°14.498 2°30.066 127.7 0.7 147 11.7
2007-04-11 09:42:13 51°14.49 2°30.076 124.8 0.5 142 11
2007-04-11 09:43:13 51°14.482 2°30.084 122.7 0.5 165 10.6
2007-04-11 09:44:13 51°14.477 2°30.088 124 0.3 160 10.3
2007-04-11 09:45:13 51°14.472 2°30.089 126.1 0.4 189 10.3
2007-04-11 09:46:13 51°14.466 2°30.089 129.9 0.2 176 10.2
2007-04-11 09:47:13 51°14.46 2°30.087 132 0.4 193 10.4
2007-04-11 09:48:13 51°14.454 2°30.084 134 0.5 208 10.4
2007-04-11 09:49:13 51°14.448 2°30.079 135.9 0.6 206 10.4
2007-04-11 09:50:13 51°14.442 2°30.075 137.6 0.2 189 10.4
2007-04-11 09:51:13 51°14.435 2°30.069 140 0.5 211 10.5
2007-04-11 09:52:13 51°14.428 2°30.061 142.2 0.6 218 10.4
2007-04-11 09:53:13 51°14.421 2°30.054 145.6 0.5 219 10.5
2007-04-11 09:54:13 51°14.414 2°30.045 148 0.5 215 10.5
2007-04-11 09:55:13 51°14.407 2°30.034 150.5 0.7 223 10.5
2007-04-11 09:56:13 51°14.399 2°30.023 153.6 0.7 226 10.6
2007-04-11 09:57:13 51°14.391 2°30.011 155 0.6 225 10.8
2007-04-11 09:58:13 51°14.384 2°29.998 156.4 0.7 230 11.1
2007-04-11 09:59:13 51°14.377 2°29.986 156.7 0.7 228 11.5
2007-04-11 10:00:13 51°14.369 2°29.975 157.2 0.5 221 11.8
2007-04-11 10:01:13 51°14.362 2°29.963 157 0.6 224 12.4
2007-04-11 10:02:13 51°14.354 2°29.95 156.5 0.8 232 12.6
2007-04-11 10:03:13 51°14.347 2°29.937 157.2 0.6 225 12.9
2007-04-11 10:04:13 51°14.34 2°29.925 157.3 0.6 226 13
2007-04-11 10:05:13 51°14.333 2°29.912 157.6 0.5 222 13.1
2007-04-11 10:06:13 51°14.325 2°29.898 158.7 0.7 228 13.2
2007-04-11 10:07:13 51°14.318 2°29.885 160.1 0.7 233 13.4
2007-04-11 10:08:13 51°14.31 2°29.871 161.1 0.8 232 13.5
2007-04-11 10:09:14 51°14.303 2°29.857 161.4 0.8 230 13.5
2007-04-11 10:10:13 51°14.295 2°29.843 161.3 0.6 228 13.7
2007-04-11 10:11:14 51°14.28 2°29.84 138.1 1.5 153 13.6
2007-04-11 10:12:14 51°14.28 2°29.895 73.8 3 63 12.4
2007-04-11 10:13:13 51°14.315 2°29.966 57.2 3.3 43 11.3
2007-04-11 10:14:13 51°14.353 2°30.014 48.7 2.7 35 10.2
2007-04-11 10:15:13 51°14.388 2°30.042 42.9 2.1 18 9.9
2007-04-11 10:16:13 51°14.417 2°30.054 36.1 1.5 8 10.2
2007-04-11 10:17:13 51°14.441 2°30.054 30.4 1.3 352 10.5
2007-04-11 10:18:13 51°14.46 2°30.048 23.9 1.1 341 11.1
2007-04-11 10:19:13 51°14.476 2°30.036 17 1 327 12.1
2007-04-11 10:20:13 51°14.49 2°30.021 9.7 0.9 321 12.9
2007-04-11 10:21:13 51°14.501 2°30.003 6.2 0.8 321 13.6
2007-04-11 10:22:13 51°14.51 2°29.983 5.2 0.9 307 14.4
2007-04-11 10:23:13 51°14.518 2°29.964 6.1 1 296 15
2007-04-11 10:24:13 51°14.527 2°29.945 7.3 1.3 326 15.7
2007-04-11 10:25:13 51°14.569 2°29.929 8.5 3.6 353 17.1
2007-04-11 10:26:13 51°14.639 2°29.919 9.2 4.6 356 20
2007-04-11 10:27:14 51°14.707 2°29.91 8.4 3.4 353 22
2007-04-11 10:28:14 51°14.755 2°29.89 2.7 2.7 344 21.3
2007-04-11 10:29:13 51°14.79 2°29.885 29 1.8 6 26.1
2007-04-11 10:30:13 51°14.813 2°29.897 53.2 1.2 30 26
2007-04-11 10:31:13 51°14.828 2°29.915 59.3 1.1 41 25.9
2007-04-11 10:32:13 51°14.842 2°29.936 61.1 1.5 48 25.9
2007-04-11 10:33:13 51°14.899 2°30.043 55.8 9.5 49 26
2007-04-11 10:34:13 51°15.03 2°30.282 55.4 12.8 50 25.1
2007-04-11 10:35:13 51°15.17 2°30.54 56.3 12.9 49 25.3
2007-04-11 10:36:13 51°15.311 2°30.799 56.6 12.9 49 23.6
2007-04-11 10:37:14 51°15.456 2°31.061 56.1 12.9 49 22.8
2007-04-11 10:38:13 51°15.595 2°31.317 58.9 13.1 53 23.2
2007-04-11 10:39:14 51°15.688 2°31.631 78.6 12.8 72 21.1
2007-04-11 10:40:13 51°15.742 2°31.956 85.6 12.8 80 19.4
2007-04-11 10:41:13 51°15.764 2°32.286 97.5 11.8 92 7.9
2007-04-11 10:42:13 51°15.687 2°32.564 138.4 11.9 138 7.5
2007-04-11 10:43:13 51°15.519 2°32.741 144.4 12.1 141 8
2007-04-11 10:44:13 51°15.353 2°32.945 144.9 13.1 146 9.7
2007-04-11 10:45:13 51°15.183 2°33.159 142.3 13 141 15
2007-04-11 10:46:13 51°15 2°33.336 161.9 12.4 166 22.4
2007-04-11 10:47:13 51°14.826 2°33.368 173.8 9.5 175 24.2
2007-04-11 10:48:13 51°14.685 2°33.372 197.1 7.1 205 24.6
2007-04-11 10:49:13 51°14.642 2°33.235 272.2 6.1 265 24.6
2007-04-11 10:50:13 51°14.635 2°33.062 281.6 6.5 279 23.4
2007-04-11 10:51:13 51°14.688 2°32.92 321.7 6.3 312 21.7
2007-04-11 10:52:13 51°14.771 2°32.873 25.2 4.4 14 20.5
2007-04-11 10:53:13 51°14.84 2°32.902 18.8 4.3 5 20.1
2007-04-11 10:54:13 51°14.893 2°32.942 55.3 3.3 42 20
2007-04-11 10:55:13 51°14.939 2°32.999 50.6 3.6 40 19.6
2007-04-11 10:56:13 51°14.982 2°33.044 27.9 2.6 7 19.1
2007-04-11 10:57:13 51°15.015 2°33.038 14 1.4 338 18.8
2007-04-11 10:58:13 51°15.026 2°33.015 348.5 0.9 278 17.7
2007-04-11 10:59:13 51°15.018 2°32.997 334 1 211 17
2007-04-11 11:00:13 51°14.999 2°32.991 327.6 1.3 186 18.2
2007-04-11 11:01:13 51°14.975 2°32.993 326.6 1.6 176 18.2
2007-04-11 11:02:13 51°14.947 2°32.999 326 1.7 172 19
2007-04-11 11:03:13 51°14.919 2°33.003 325.8 1.4 182 19.6
2007-04-11 11:04:13 51°14.907 2°32.987 334.5 1 262 20.2
2007-04-11 11:05:13 51°14.915 2°32.961 4.7 1.2 315 19.4
2007-04-11 11:06:13 51°14.935 2°32.956 44.7 1.1 19 18.9
2007-04-11 11:07:13 51°14.952 2°32.975 57.5 1.4 46 18.2
2007-04-11 11:08:13 51°14.958 2°33.017 91.1 1.6 87 18.4
2007-04-11 11:09:13 51°14.967 2°33.048 62.8 1 46 17.6
2007-04-11 11:10:13 51°14.97 2°33.056 80.5 0.1 70 17.8
2007-04-11 11:11:13 51°14.967 2°33.057 89.5 0.2 183 17.8
2007-04-11 11:12:13 51°14.962 2°33.054 94.4 0.6 194 19.3
2007-04-11 11:13:13 51°14.955 2°33.049 97.9 0.5 211 19.2
2007-04-11 11:14:13 51°14.948 2°33.041 100.7 0.5 218 19.5
2007-04-11 11:15:13 51°14.941 2°33.03 100.9 0.7 222 19.2
2007-04-11 11:16:13 51°14.934 2°33.013 102.3 0.9 240 20
2007-04-11 11:17:13 51°14.927 2°32.988 109.1 1.2 250 19.7
2007-04-11 11:18:13 51°14.922 2°32.956 121.2 1.1 247 19.4
2007-04-11 11:19:13 51°14.912 2°32.951 96.5 0.6 140 19.7
2007-04-11 11:20:13 51°14.915 2°32.966 53 1 33 19.8
2007-04-11 11:21:13 51°14.939 2°32.98 39.7 1.9 25 19.1
2007-04-11 11:22:13 51°14.961 2°33.007 63.5 1.3 56 18.7
2007-04-11 11:23:13 51°14.964 2°33.031 87.3 0.6 112 18.1
2007-04-11 11:24:13 51°14.961 2°33.034 80.2 0.3 205 18.4
2007-04-11 11:25:13 51°14.958 2°33.028 72.8 0.3 234 18.3
2007-04-11 11:26:13 51°14.956 2°33.021 67.9 0.4 261 17.8
2007-04-11 11:27:13 51°14.954 2°33.011 63.8 0.5 258 18.7
2007-04-11 11:28:13 51°14.952 2°32.999 60.3 0.5 261 19.2
2007-04-11 11:29:13 51°14.95 2°32.986 58.3 0.5 245 18.5
2007-04-11 11:30:13 51°14.948 2°32.971 56.6 0.6 257 18.8
2007-04-11 11:31:13 51°14.945 2°32.955 55.1 0.7 262 17.7
2007-04-11 11:32:13 51°14.942 2°32.938 53.7 0.7 249 18.3
2007-04-11 11:33:13 51°14.938 2°32.92 52.8 0.7 247 17.6
2007-04-11 11:34:13 51°14.934 2°32.901 52.5 0.8 249 17.2
2007-04-11 11:35:13 51°14.931 2°32.882 53.7 0.8 256 16.8
2007-04-11 11:36:13 51°14.927 2°32.862 54.7 0.9 253 16.4
2007-04-11 11:37:13 51°14.922 2°32.841 56.1 0.8 247 16.1
2007-04-11 11:38:13 51°14.917 2°32.821 58.2 0.8 241 16.1
2007-04-11 11:39:13 51°14.912 2°32.8 59.5 1 261 15.4
2007-04-11 11:40:13 51°14.907 2°32.78 60.3 0.9 248 15.2
2007-04-11 11:41:13 51°14.901 2°32.759 60.8 0.9 249 14.9
2007-04-11 11:42:13 51°14.896 2°32.736 61.6 0.9 254 14.2
2007-04-11 11:43:13 51°14.89 2°32.714 63.1 0.9 255 14.1
2007-04-11 11:44:13 51°14.886 2°32.691 64.5 1 258 13.5
2007-04-11 11:45:13 51°14.88 2°32.667 66 1 250 13.2
2007-04-11 11:46:13 51°14.874 2°32.641 68.2 1 244 12.9
2007-04-11 11:47:13 51°14.867 2°32.616 71.2 1.1 236 12.7
2007-04-11 11:48:13 51°14.859 2°32.589 75.3 1.1 251 12.4
2007-04-11 11:49:13 51°14.852 2°32.565 80.9 0.5 220 12.1
2007-04-11 11:50:13 51°14.849 2°32.645 92.2 7.2 95 13.3
2007-04-11 11:51:14 51°14.782 2°32.925 114.5 12.7 114 20.4
2007-04-11 11:52:14 51°14.689 2°33.231 114 12.8 114 24
2007-04-11 11:53:14 51°14.599 2°33.542 113.8 12.9 114 25
2007-04-11 11:54:14 51°14.512 2°33.854 113 12.8 113 25.1
2007-04-11 11:55:13 51°14.427 2°34.159 112.7 12.8 114 23.5
2007-04-11 11:56:14 51°14.339 2°34.476 112.4 12.9 114 20.5
2007-04-11 11:57:14 51°14.255 2°34.788 113.4 12.7 114 19.2
2007-04-11 11:58:14 51°14.171 2°35.097 114 12.7 112 18.1
2007-04-11 11:59:14 51°14.09 2°35.4 114.9 12.4 113 12.9
2007-04-11 12:00:13 51°14.009 2°35.698 114.3 12.5 114 12.6
2007-04-11 12:01:14 51°13.913 2°36 117.6 12.6 117 14.5
2007-04-11 12:02:14 51°13.816 2°36.296 117.6 12.5 118 17.8
2007-04-11 12:03:14 51°13.72 2°36.591 117.4 12.6 119 19.3
2007-04-11 12:04:13 51°13.626 2°36.882 117.7 12.6 117 17.5
2007-04-11 12:05:14 51°13.52 2°37.174 121.2 12.3 123 8.2
2007-04-11 12:06:14 51°13.349 2°37.344 161 13 167 8.5
2007-04-11 12:07:14 51°13.124 2°37.367 175.6 13.9 176 9
2007-04-11 12:08:14 51°12.892 2°37.392 174.1 14.1 176 10.1
2007-04-11 12:09:13 51°12.663 2°37.419 173.5 14 174 10.6
2007-04-11 12:10:13 51°12.431 2°37.44 180.4 14.1 184 10.6
2007-04-11 12:11:13 51°12.224 2°37.273 223.4 14.5 223 10.4
2007-04-11 12:12:14 51°12.036 2°37.023 218 14.5 216 9.8
2007-04-11 12:13:14 51°11.825 2°36.844 205.2 14.4 204 9.9
2007-04-11 12:14:14 51°11.606 2°36.687 204.1 14.4 203 10.4
2007-04-11 12:15:14 51°11.385 2°36.533 203.6 14.5 204 10.7
2007-04-11 12:16:14 51°11.164 2°36.378 203.4 14.5 203 10.6
2007-04-11 12:17:14 51°10.943 2°36.226 203.6 14.3 203 10.7
2007-04-11 12:18:14 51°10.722 2°36.074 203.6 14.4 203 10.2
2007-04-11 12:19:14 51°10.501 2°35.925 203.7 14.5 203 10
2007-04-11 12:20:14 51°10.276 2°35.823 188 13.9 187 9.6
2007-04-11 12:21:14 51°10.041 2°35.779 186.3 14.5 188 15.2
2007-04-11 12:22:14 51°9.805 2°35.72 186.4 14.2 188 17.9
2007-04-11 12:23:14 51°9.573 2°35.661 186.1 14.2 189 17.1
2007-04-11 12:24:14 51°9.35 2°35.531 201.5 14.4 203 15.8
2007-04-11 12:25:13 51°9.132 2°35.388 200.7 14.5 203 15.7
2007-04-11 12:26:14 51°8.908 2°35.243 201.2 13.2 204 15.5
2007-04-11 12:27:14 51°8.768 2°35.161 187.7 6.3 196 14.4
2007-04-11 12:28:14 51°8.702 2°35.138 154.9 2 189 12.9
2007-04-11 12:29:13 51°8.677 2°35.131 131.8 1.3 191 12.1
2007-04-11 12:30:14 51°8.658 2°35.12 124.8 1.1 204 11.5
2007-04-11 12:31:14 51°8.643 2°35.106 117.9 1.1 214 11.2
2007-04-11 12:32:14 51°8.63 2°35.089 112.9 1 223 10.9
2007-04-11 12:33:14 51°8.618 2°35.068 108 1.1 228 10.7
2007-04-11 12:34:14 51°8.606 2°35.045 102.7 1.1 236 10.6
2007-04-11 12:35:14 51°8.595 2°35.02 98.7 1.2 235 10.6
2007-04-11 12:36:13 51°8.585 2°34.993 95.7 1.2 240 10.4
2007-04-11 12:37:14 51°8.573 2°34.965 93.8 1.1 231 10.3
2007-04-11 12:38:14 51°8.566 2°34.955 68.4 -999 258 10.3
2007-04-11 12:39:13 51°8.575 2°34.954 32.1 1.1 355 10.6
2007-04-11 12:40:14 51°8.603 2°34.952 28.3 1.9 -999 11.5
2007-04-11 12:41:13 51°8.637 2°34.96 34.2 2.3 13 12.6
2007-04-11 12:42:13 51°8.756 2°35.027 26.2 11.5 17 15
2007-04-11 12:43:13 51°8.951 2°35.122 26.1 12.4 18 15.6
2007-04-11 12:44:14 51°9.152 2°35.224 26 12.6 18 15.5
2007-04-11 12:45:13 51°9.35 2°35.32 25.4 12.6 17 16.8
2007-04-11 12:46:13 51°9.55 2°35.418 26 12.6 17 17.4
2007-04-11 12:47:13 51°9.751 2°35.514 25.4 12.5 17 18
2007-04-11 12:48:13 51°9.95 2°35.611 25.4 12.5 16 16.8
2007-04-11 12:49:13 51°10.146 2°35.719 26.4 12.4 21 11.2
2007-04-11 12:50:13 51°10.341 2°35.83 24.5 12.6 19 10.1
2007-04-11 12:51:14 51°10.541 2°35.942 25.2 12.4 19 10.1
2007-04-11 12:52:14 51°10.732 2°36.059 27.2 12.3 22 10.5
2007-04-11 12:53:14 51°10.92 2°36.189 29.5 12.3 24 10.6
2007-04-11 12:54:14 51°11.108 2°36.32 29.4 12.3 24 11
2007-04-11 12:55:14 51°11.295 2°36.45 29.6 12.3 23 10.9
2007-04-11 12:56:14 51°11.481 2°36.584 30.3 12.3 25 10.5
2007-04-11 12:57:14 51°11.667 2°36.719 30.2 12.4 24 10.4
2007-04-11 12:58:14 51°11.854 2°36.855 29.9 12.4 24 10.1
2007-04-11 12:59:14 51°12.04 2°36.993 30.5 12.4 25 9.8
2007-04-11 13:00:14 51°12.228 2°37.131 30.4 12.4 24 9.9
2007-04-11 13:01:14 51°12.416 2°37.268 30.6 12.4 25 10.4
2007-04-11 13:02:14 51°12.582 2°37.386 30.2 9.1 24 11
2007-04-11 13:03:14 51°12.7 2°37.468 30.4 7 23 11.3
2007-04-11 13:04:14 51°12.799 2°37.533 30.4 5.3 20 11.6
2007-04-11 13:05:14 51°12.863 2°37.568 31.7 3.3 19 11.9
2007-04-11 13:06:14 51°12.906 2°37.594 35.6 2.5 19 11.7
2007-04-11 13:07:14 51°12.933 2°37.615 48.2 1.1 28 11.9
2007-04-11 13:08:14 51°12.944 2°37.613 27 0.7 310 12.1
2007-04-11 13:09:14 51°12.95 2°37.593 10.2 1 283 11.9
2007-04-11 13:10:14 51°12.952 2°37.565 1.9 1.1 274 11.7
2007-04-11 13:11:14 51°12.952 2°37.534 356.3 1.2 267 11.5
2007-04-11 13:12:13 51°12.961 2°37.494 329.7 2.7 296 10.9
2007-04-11 13:13:13 51°12.964 2°37.399 264.3 4.3 254 10.4
2007-04-11 13:14:13 51°12.916 2°37.317 198.7 4.3 203 10.2
2007-04-11 13:15:14 51°12.857 2°37.328 133.5 3.1 144 10.5
2007-04-11 13:16:13 51°12.846 2°37.388 69 2.5 66 10.8
2007-04-11 13:17:14 51°12.879 2°37.454 57 3.7 52 11.2
2007-04-11 13:18:14 51°12.923 2°37.534 53.6 4.1 49 11.6
2007-04-11 13:19:13 51°12.965 2°37.619 52.3 4.2 45 12.1
2007-04-11 13:20:13 51°13 2°37.704 61.8 3.1 54 12.7
2007-04-11 13:21:14 51°13.024 2°37.721 45.7 0.7 261 12.3
2007-04-11 13:22:13 51°13.018 2°37.7 59.1 0.7 255 12.6
2007-04-11 13:23:14 51°13.013 2°37.705 96.2 0.7 164 12.8
2007-04-11 13:24:14 51°13 2°37.71 99.2 0.8 167 13
2007-04-11 13:25:14 51°12.988 2°37.714 83.5 0.6 173 12.6
2007-04-11 13:26:14 51°12.981 2°37.714 68.5 0.4 190 12.3
2007-04-11 13:27:14 51°12.977 2°37.71 51.2 0.3 258 12.4
2007-04-11 13:28:14 51°12.977 2°37.698 29.7 0.5 275 12.3
2007-04-11 13:29:14 51°12.979 2°37.676 3.2 1.1 281 12.3
2007-04-11 13:30:13 51°12.982 2°37.642 333.8 1.6 273 12.1
2007-04-11 13:31:14 51°12.982 2°37.596 305.8 2 263 11.6
2007-04-11 13:32:13 51°12.978 2°37.543 283.5 2.2 257 11.5
2007-04-11 13:33:13 51°12.966 2°37.486 261.6 2.4 248 11
2007-04-11 13:34:14 51°12.948 2°37.429 240 2.4 241 10.8
2007-04-11 13:35:14 51°12.923 2°37.38 218.4 2.4 226 10.6
2007-04-11 13:36:14 51°12.881 2°37.352 170.5 2.9 183 10.7
2007-04-11 13:37:14 51°12.83 2°37.375 137.3 3.3 152 10.8
2007-04-11 13:38:14 51°12.796 2°37.436 106.5 3.2 119 11.4
2007-04-11 13:39:14 51°12.76 2°37.584 107.8 8 110 11.7
2007-04-11 13:40:14 51°12.686 2°37.843 117.5 12.5 119 12.4
2007-04-11 13:41:14 51°12.584 2°38.14 113.3 12.7 112 12.6
2007-04-11 13:42:14 51°12.526 2°38.462 109.8 12.7 111 13
2007-04-11 13:43:14 51°12.492 2°38.787 91.9 12.3 89 13
2007-04-11 13:44:14 51°12.456 2°39.036 121.6 9.2 122 13.2
2007-04-11 13:45:14 51°12.468 2°39.209 61.5 5.5 56 12.9
2007-04-11 13:46:14 51°12.515 2°39.299 53.9 3.9 50 13
2007-04-11 13:47:14 51°12.551 2°39.369 52.8 2.6 46 13.1
2007-04-11 13:48:14 51°12.575 2°39.39 31.1 1.2 5 13.5
2007-04-11 13:49:14 51°12.591 2°39.384 27.2 1 357 13.5
2007-04-11 13:50:14 51°12.602 2°39.397 64.7 0.6 75 13.3
2007-04-11 13:51:14 51°12.599 2°39.408 82.2 0.5 145 13.3
2007-04-11 13:52:14 51°12.588 2°39.413 100.8 0.9 179 13.3
2007-04-11 13:53:14 51°12.572 2°39.406 113.1 1.1 202 13.8
2007-04-11 13:54:14 51°12.557 2°39.389 121.3 1.2 222 9.9
2007-04-11 13:55:14 51°12.54 2°39.367 131.1 1.2 221 13.1
2007-04-11 13:56:14 51°12.524 2°39.345 137.1 1.3 220 13.2
2007-04-11 13:57:14 51°12.507 2°39.323 139.9 1.3 222 13.2
2007-04-11 13:58:14 51°12.489 2°39.303 134.7 1.2 200 13.2
2007-04-11 13:59:14 51°12.469 2°39.305 104.5 1.2 150 13
2007-04-11 14:00:14 51°12.47 2°39.336 52.8 1.6 45 13.1
2007-04-11 14:01:14 51°12.506 2°39.343 12.1 2.9 355 13.2
2007-04-11 14:02:14 51°12.544 2°39.365 52 1.9 43 13
2007-04-11 14:03:14 51°12.56 2°39.39 46.5 1 33 11.7
2007-04-11 14:04:14 51°12.57 2°39.396 41.3 0.5 5 13.6
2007-04-11 14:05:14 51°12.575 2°39.397 52.8 0.2 342 13.7
2007-04-11 14:06:14 51°12.573 2°39.395 62.3 0.3 211 13.6
2007-04-11 14:07:14 51°12.567 2°39.389 72.1 0.5 204 13.7
2007-04-11 14:08:14 51°12.556 2°39.382 82 0.8 200 13
2007-04-11 14:09:14 51°12.544 2°39.375 82.7 0.6 201 13.4
2007-04-11 14:10:14 51°12.535 2°39.375 64.4 0.3 152 13.2
2007-04-11 14:11:14 51°12.537 2°39.376 35.1 0.5 340 13.1
2007-04-11 14:12:14 51°12.547 2°39.377 43.5 0.7 17 13.2
2007-04-11 14:13:14 51°12.558 2°39.389 47.8 0.8 31 13.1
2007-04-11 14:14:14 51°12.565 2°39.393 44.2 0.2 341 13.9
2007-04-11 14:15:14 51°12.568 2°39.387 43.3 0.2 299 13.9
2007-04-11 14:16:14 51°12.569 2°39.384 58.2 0.1 172 13.8
2007-04-11 14:17:14 51°12.566 2°39.387 75 0.4 142 13.8
2007-04-11 14:18:14 51°12.558 2°39.39 83.8 0.7 183 13.2
2007-04-11 14:19:14 51°12.546 2°39.386 96.2 0.8 197 13.3
2007-04-11 14:20:14 51°12.532 2°39.378 104.3 1 202 13.3
2007-04-11 14:21:14 51°12.529 2°39.406 57.3 2.5 49 13.2
2007-04-11 14:22:14 51°12.592 2°39.37 325.7 6.7 309 13.6
2007-04-11 14:23:14 51°12.679 2°39.102 302.4 13.6 294 13.2
2007-04-11 14:24:14 51°12.765 2°38.76 299.3 14 291 13.4
2007-04-11 14:25:14 51°12.824 2°38.398 289.5 14.2 283 13.4
2007-04-11 14:26:14 51°12.877 2°38.03 290.2 14.2 283 13.3
2007-04-11 14:27:14 51°12.923 2°37.744 298 7.5 290 12.7
2007-04-11 14:28:14 51°12.939 2°37.673 339.8 1.4 214 12.9
2007-04-11 14:29:17 51°12.945 2°37.65 9.6 1.9 349 12.8
2007-04-11 14:30:15 51°12.989 2°37.686 42.2 3.9 35 12.8
2007-04-11 14:31:14 51°13.024 2°37.727 34.1 2 20 12.7
2007-04-11 14:32:14 51°13.037 2°37.726 38.2 0.4 342 12.6
2007-04-11 14:33:14 51°13.044 2°37.727 52.9 0.4 40 12.9
2007-04-11 14:34:14 51°13.044 2°37.731 67.7 0.1 159 12.7
2007-04-11 14:35:14 51°13.038 2°37.737 89.2 0.7 166 12.9
2007-04-11 14:36:14 51°13.026 2°37.734 104.5 0.9 205 12.8
2007-04-11 14:37:14 51°13.013 2°37.719 121.7 1.1 215 12.6
2007-04-11 14:38:14 51°12.998 2°37.704 134.9 1.2 215 13.1
2007-04-11 14:39:14 51°12.967 2°37.702 166.2 3.1 182 12.9
2007-04-11 14:40:14 51°12.928 2°37.69 171.2 1.8 195 12.9
2007-04-11 14:41:14 51°12.9 2°37.675 168.1 1.7 203 13
2007-04-11 14:42:14 51°12.876 2°37.656 172 1.6 207 12.9
2007-04-11 14:43:14 51°12.852 2°37.637 173.5 1.6 208 12.5
2007-04-11 14:44:14 51°12.831 2°37.616 174.1 1.4 208 12.7
2007-04-11 14:45:14 51°12.81 2°37.594 174.8 1.4 212 12.7
2007-04-11 14:46:13 51°12.792 2°37.573 174.1 1.4 215 12.6
2007-04-11 14:47:14 51°12.773 2°37.55 173.6 1.4 221 12.3
2007-04-11 14:48:14 51°12.756 2°37.529 172.6 1.3 223 12.3
2007-04-11 14:49:14 51°12.736 2°37.508 176.9 1.6 206 12.4
2007-04-11 14:50:14 51°12.698 2°37.472 218.5 3.3 222 12.3
2007-04-11 14:51:14 51°12.674 2°37.389 274.7 3.6 265 11.8
2007-04-11 14:52:14 51°12.69 2°37.307 327.1 3 309 11.5
2007-04-11 14:53:14 51°12.727 2°37.28 16.6 2.2 359 11.3
2007-04-11 14:54:14 51°12.759 2°37.303 47.8 2.4 37 11.6
2007-04-11 14:55:13 51°12.793 2°37.35 50 2.9 42 11.7
2007-04-11 14:56:14 51°12.83 2°37.406 48.6 3.2 42 11.8
2007-04-11 14:57:14 51°12.867 2°37.465 53 3.1 46 12
2007-04-11 14:58:14 51°12.901 2°37.514 48.6 2.1 40 12.5
2007-04-11 14:59:14 51°12.922 2°37.542 46.4 1.3 35 12.6
2007-04-11 15:00:14 51°12.934 2°37.556 45 0.7 26 12.7
2007-04-11 15:01:13 51°12.941 2°37.561 40.3 0.3 11 12.7
2007-04-11 15:02:14 51°12.944 2°37.556 32.4 0.4 294 12.4
2007-04-11 15:03:14 51°12.945 2°37.546 26.3 0.4 270 12.5
2007-04-11 15:04:14 51°12.943 2°37.531 20.5 0.6 252 12.2
2007-04-11 15:05:14 51°12.938 2°37.513 10.7 0.8 244 12.3
2007-04-11 15:06:14 51°12.93 2°37.492 354.9 1 238 12.1
2007-04-11 15:07:14 51°12.92 2°37.472 336.4 0.9 228 12.2
2007-04-11 15:08:14 51°12.909 2°37.453 320.3 0.9 225 12
2007-04-11 15:09:13 51°12.899 2°37.437 308.2 0.9 227 12
2007-04-11 15:10:13 51°12.888 2°37.419 300.3 0.9 225 12
2007-04-11 15:11:13 51°12.877 2°37.402 296.1 1 223 11.9
2007-04-11 15:12:13 51°12.866 2°37.385 294.6 0.9 227 11.6
2007-04-11 15:13:14 51°12.87 2°37.344 325 2.2 306 11.5
2007-04-11 15:14:13 51°12.902 2°37.321 14.9 1.8 357 11.3
2007-04-11 15:15:13 51°12.925 2°37.318 19.1 1 350 11.1
2007-04-11 15:16:13 51°12.938 2°37.31 13.9 0.7 327 11
2007-04-11 15:17:13 51°12.946 2°37.298 7.8 0.6 303 11
2007-04-11 15:18:13 51°12.957 2°37.286 16 1.3 351 10.9
2007-04-11 15:19:13 51°12.978 2°37.308 58.8 1.9 61 10.8
2007-04-11 15:20:13 51°12.979 2°37.37 92.2 2.9 98 11.3
2007-04-11 15:21:13 51°12.975 2°37.454 89.6 3 94 11.9
2007-04-11 15:22:13 51°12.97 2°37.516 89.2 1.9 102 12.2
2007-04-11 15:23:13 51°12.963 2°37.539 78.5 0.5 123 12.7
2007-04-11 15:24:13 51°12.957 2°37.548 71.4 0.6 149 12.6
2007-04-11 15:25:13 51°12.952 2°37.553 69.4 0.5 156 12.7
2007-04-11 15:26:13 51°12.946 2°37.553 69.5 0.3 185 12.6
2007-04-11 15:27:13 51°12.939 2°37.552 70.9 0.4 187 13
2007-04-11 15:28:13 51°12.932 2°37.549 74.4 0.5 202 12.8
2007-04-11 15:29:14 51°12.924 2°37.544 79.4 0.7 195 13
2007-04-11 15:30:13 51°12.914 2°37.538 87.6 0.7 200 12.8
2007-04-11 15:31:13 51°12.903 2°37.531 95.5 0.9 202 12.8
2007-04-11 15:32:13 51°12.892 2°37.527 98.1 0.8 163 12.9
2007-04-11 15:33:13 51°12.885 2°37.544 73.7 0.8 92 12.9
2007-04-11 15:34:13 51°12.891 2°37.561 45.7 0.6 39 13.1
2007-04-11 15:35:13 51°12.896 2°37.564 35.8 0.3 343 13.2
2007-04-11 15:36:13 51°12.9 2°37.559 28.3 0.4 299 13
2007-04-11 15:37:13 51°12.902 2°37.549 21.5 0.5 280 13
2007-04-11 15:38:13 51°12.902 2°37.535 14.8 0.6 262 12.8
2007-04-11 15:39:13 51°12.9 2°37.521 7.8 0.6 252 12.9
2007-04-11 15:40:13 51°12.896 2°37.506 358.2 0.7 246 12.9
2007-04-11 15:41:13 51°12.891 2°37.49 347.5 0.7 238 12.5
2007-04-11 15:42:13 51°12.884 2°37.473 335.3 0.7 233 12.4
2007-04-11 15:43:13 51°12.876 2°37.458 322.7 0.6 230 12.4
2007-04-11 15:44:13 51°12.876 2°37.436 328.5 1.3 303 12.5
2007-04-11 15:45:13 51°12.899 2°37.415 6.3 1.8 356 12.3
2007-04-11 15:46:13 51°12.928 2°37.431 44.7 1.7 41 12.1
2007-04-11 15:47:13 51°12.941 2°37.46 69.2 1.2 73 12.6
2007-04-11 15:48:13 51°12.941 2°37.491 86.8 1.2 97 12.7
2007-04-11 15:49:14 51°12.936 2°37.521 92.9 1.2 112 13
2007-04-11 15:50:13 51°12.929 2°37.548 93.9 1.2 116 13.2
2007-04-11 15:51:13 51°12.922 2°37.575 93.1 1.1 115 13.4
2007-04-11 15:52:13 51°12.914 2°37.598 93.1 0.9 126 13.3
2007-04-11 15:53:14 51°12.905 2°37.612 96 0.7 150 13.6
2007-04-11 15:54:14 51°12.897 2°37.618 99.2 0.7 170 13.6
2007-04-11 15:55:14 51°12.888 2°37.621 100.6 0.4 171 13.5
2007-04-11 15:56:14 51°12.88 2°37.621 100.1 0.5 192 13.5
2007-04-11 15:57:14 51°12.873 2°37.629 94.8 1.1 105 13.6
2007-04-11 15:58:13 51°12.876 2°37.675 74.5 2.4 79 13.7
2007-04-11 15:59:14 51°12.887 2°37.75 80.4 3.2 80 14
2007-04-11 16:00:13 51°12.895 2°37.864 85.1 7.4 82 13.9
2007-04-11 16:01:13 51°12.931 2°38.144 80.7 12.6 77 14.6
2007-04-11 16:02:14 51°12.975 2°38.483 81.9 12.9 78 14.8
2007-04-11 16:03:13 51°13.017 2°38.812 82 12.9 79 13.4
2007-04-11 16:04:13 51°13.06 2°39.147 81.4 12.9 78 14.9
2007-04-11 16:05:14 51°13.102 2°39.489 83.3 12.9 80 14.9
2007-04-11 16:06:13 51°13.14 2°39.82 82.7 12.9 79 15.8
2007-04-11 16:07:14 51°13.182 2°40.161 82.7 13 79 14.5
2007-04-11 16:08:14 51°13.221 2°40.497 82.7 12.9 80 15.2
2007-04-11 16:09:13 51°13.261 2°40.828 82.3 12.9 80 15.3
2007-04-11 16:10:14 51°13.305 2°41.172 82.2 13 80 14.8
2007-04-11 16:11:14 51°13.347 2°41.512 81.9 13 78 14.9
2007-04-11 16:12:13 51°13.389 2°41.846 82 13.1 79 14.9
2007-04-11 16:13:13 51°13.427 2°42.189 84.6 13.1 81 14.1
2007-04-11 16:14:14 51°13.462 2°42.539 84.4 13.2 82 13.6
2007-04-11 16:15:13 51°13.497 2°42.879 84.3 13.2 80 12.8
2007-04-11 16:16:14 51°13.534 2°43.23 84.5 13.2 81 11.7
2007-04-11 16:17:14 51°13.57 2°43.576 84.2 13.3 81 10.8
2007-04-11 16:18:13 51°13.606 2°43.916 85.2 13.3 81 10.2
2007-04-11 16:19:14 51°13.644 2°44.271 84.3 13.5 79 11.5
2007-04-11 16:20:14 51°13.694 2°44.618 81.1 13.4 77 12.5
2007-04-11 16:21:14 51°13.746 2°44.963 80.7 13.3 77 12.2
2007-04-11 16:22:13 51°13.794 2°45.301 81.1 13.2 78 11.2
2007-04-11 16:23:14 51°13.845 2°45.65 80.9 13.2 77 10.6
2007-04-11 16:24:13 51°13.894 2°45.986 80.8 13.2 76 10.2
2007-04-11 16:25:13 51°13.943 2°46.325 81.3 13.1 77 10.2
2007-04-11 16:26:14 51°13.985 2°46.673 84.9 13.2 81 10.3
2007-04-11 16:27:14 51°14.023 2°47.016 84.8 13.2 80 11.2
2007-04-11 16:28:14 51°14.06 2°47.361 84.7 13.2 80 12.4
2007-04-11 16:29:13 51°14.1 2°47.696 84.2 13.1 79 12.8
2007-04-11 16:30:14 51°14.139 2°48.042 84.4 13 80 13
2007-04-11 16:31:13 51°14.175 2°48.379 84.1 13.1 80 12.9
2007-04-11 16:32:14 51°14.213 2°48.727 84.2 13.1 79 12.9
2007-04-11 16:33:14 51°14.25 2°49.07 84.7 13.1 80 13
2007-04-11 16:34:14 51°14.288 2°49.412 83.9 13 81 12.8
2007-04-11 16:35:14 51°14.325 2°49.755 83.9 13.1 80 12.5
2007-04-11 16:36:14 51°14.362 2°50.099 84.1 13.2 80 11.9
2007-04-11 16:37:14 51°14.399 2°50.444 84.1 13.2 79 11.5
2007-04-11 16:38:14 51°14.435 2°50.788 84.1 13.2 81 11.4
2007-04-11 16:39:14 51°14.472 2°51.133 84.4 13.2 80 11.1
2007-04-11 16:40:13 51°14.507 2°51.472 84.3 13.2 80 11
2007-04-11 16:41:14 51°14.545 2°51.822 84.5 13.2 81 11
2007-04-11 16:42:14 51°14.581 2°52.167 83.9 13.2 81 10.8
2007-04-11 16:43:14 51°14.605 2°52.516 89.4 13.3 85 10.7
2007-04-11 16:44:14 51°14.613 2°52.869 94.1 13.3 90 10.6
2007-04-11 16:45:14 51°14.605 2°53.224 95.8 13.4 92 10
2007-04-11 16:46:14 51°14.586 2°53.579 101.9 13.5 98 10.6
2007-04-11 16:47:14 51°14.541 2°53.93 107.4 13.5 102 11.3
2007-04-11 16:48:14 51°14.492 2°54.276 106.9 13 103 12.1
2007-04-11 16:49:14 51°14.442 2°54.626 107.4 13.7 102 12
2007-04-11 16:50:14 51°14.375 2°54.976 117.4 13.7 113 11.2
2007-04-11 16:51:14 51°14.251 2°55.273 131.3 13.3 131 11.9
2007-04-11 16:52:16 51°14.092 2°55.436 157.6 9.7 155 -999
2007-04-11 16:53:17 51°13.961 2°55.529 158.2 8.2 156 12.7
2007-04-11 16:54:17 51°13.839 2°55.624 152.8 8.1 151 -999
2007-04-11 16:55:17 51°13.736 2°55.74 139.3 6.7 138 -999
2007-04-11 16:56:17 51°13.668 2°55.861 127.5 5.7 126 -999
2007-04-11 16:57:17 51°13.628 2°55.971 116.1 4.1 115 -999
2007-04-11 16:58:18 51°13.608 2°56.061 104.6 3 104 -999
2007-04-11 16:59:17 51°13.603 2°56.093 105.6 0.2 93 -999
2007-04-11 17:00:17 51°13.601 2°56.098 108.9 0.3 112 -999